Thunder radar more information blitzortung!


Löydät sääaseman tiedot myös:

European Weather Network

Finland Weather Exchange

Weather Underground

AWEKAS



Weather Underground säähistoriasivu

Päivittäin yhteenveto Kesäkuu 23, 2017 Yksiköt:  Metriset    Englantilaiset   Molemmat
« Edellinen Päivä
Seuraava Päivä »
Päivittäin Viikoittain Kuukausittain Vuosittain Mukautettu
  Korkea: Matala: Keskiarvo:
Lämpötila: -17.8 °C -14.7 °C -11.8 °C
Kastepiste: -17.8 °C -15.5 °C -14.3 °C
Kosteus: Humidity % 52 % 74 %
Tuulen nopeus: 0 km/h 0 km/h 0.6 km/h
Tuulenpuuska: 0 km/h - -
Tuuli:- - WNW
Ilmanpaine: 0 hPa 34015.8 hPa -
Sade: 0 mm    
Historical Graphs
 
 
Taulukkotiedot Kesäkuu 23, 2017
Aika Lämpötila Kastepiste Ilmanpaine Tuuli Tuulen nopeus Tuulenpuuska Kosteus Sademäärä (tunneittain)
-17.8 °C -17.8 °C 0 hPa Calm     Humidity % 0 mm
00:00 -13.8 °C -15.3 °C 34039.5 hPa NW 2.6 km/h 10.3 km/h 84 % 0 mm
00:15 -13.8 °C -15.2 °C 34039.5 hPa WNW 2.6 km/h 10.3 km/h 84 % 0 mm
00:30 -13.7 °C -15.1 °C 34039.5 hPa NW 2.6 km/h 10.3 km/h 84 % 0 mm
00:45 -13.7 °C -15.1 °C 34039.5 hPa Calm   7.7 km/h 84 % 0 mm
01:00 -13.8 °C -15.1 °C 34039.5 hPa Calm   5.1 km/h 85 % 0 mm
01:15 -13.9 °C -15.1 °C 34039.5 hPa Calm   5.1 km/h 86 % 0 mm
01:30 -14.2 °C -15.3 °C 34039.5 hPa Calm   2.6 km/h 87 % 0 mm
01:45 -14.3 °C -15.4 °C 34039.5 hPa Calm     87 % 0 mm
02:00 -14.3 °C -15.3 °C 34039.5 hPa Calm   5.1 km/h 89 % 0 mm
02:15 -14.4 °C -15.4 °C 34049.6 hPa Calm   7.7 km/h 88 % 0 mm
02:30 -14.6 °C -15.5 °C 34049.6 hPa Calm   5.1 km/h 89 % 0 mm
02:45 -14.6 °C -15.4 °C 34049.6 hPa Calm   5.1 km/h 90 % 0 mm
03:00 -14.5 °C -15.3 °C 34049.6 hPa Calm   10.3 km/h 90 % 0 mm
03:15 -14.4 °C -15.2 °C 34049.6 hPa Calm   7.7 km/h 90 % 0 mm
03:30 -14.3 °C -15.3 °C 34049.6 hPa Calm   5.1 km/h 89 % 0 mm
03:45 -14.3 °C -15.3 °C 34049.6 hPa Calm     89 % 0 mm
04:00 -14.5 °C -15.4 °C 34063.2 hPa Calm     89 % 0 mm
04:15 -14.7 °C -15.5 °C 34063.2 hPa Calm     90 % 0 mm
04:30 -14.7 °C -15.5 °C 34063.2 hPa Calm     91 % 0 mm
04:45 -14.7 °C -15.3 °C 34063.2 hPa Calm     92 % 0 mm
05:00 -14.5 °C -15.2 °C 34063.2 hPa Calm   5.1 km/h 92 % 0 mm
05:15 -14.3 °C -15.1 °C 34063.2 hPa Calm   7.7 km/h 91 % 0 mm
05:30 -14.1 °C -14.9 °C 34063.2 hPa Calm     91 % 0 mm
05:45 -14 °C -14.8 °C 34073.3 hPa Calm   7.7 km/h 90 % 0 mm
06:00 -13.9 °C -14.8 °C 34073.3 hPa NW 2.6 km/h 10.3 km/h 90 % 0 mm
06:15 -13.8 °C -14.7 °C 34073.3 hPa Calm   7.7 km/h 90 % 0 mm
06:30 -13.8 °C -14.6 °C 34063.2 hPa Calm   7.7 km/h 90 % 0 mm
06:45 -13.5 °C -14.4 °C 34073.3 hPa Calm   2.6 km/h 89 % 0 mm
07:00 -13.3 °C -14.3 °C 34063.2 hPa Calm   10.3 km/h 88 % 0 mm
07:15 -13.1 °C -14.2 °C 34063.2 hPa Calm   7.7 km/h 87 % 0 mm
07:30 -12.9 °C -14.1 °C 34063.2 hPa Calm   7.7 km/h 86 % 0 mm
07:45 -12.9 °C -14.2 °C 34073.3 hPa Calm   2.6 km/h 85 % 0 mm
08:00 -12.8 °C -14.1 °C 34073.3 hPa Calm   2.6 km/h 85 % 0 mm
08:15 -12.7 °C -14.1 °C 34073.3 hPa Calm     85 % 0 mm
08:30 -12.6 °C -14 °C 34073.3 hPa Calm     84 % 0 mm
08:45 -12.6 °C -14.2 °C 34073.3 hPa Calm   7.7 km/h 82 % 0 mm
09:00 -12.5 °C -14.1 °C 34073.3 hPa Calm   2.6 km/h 82 % 0 mm
09:15 -12.4 °C -14.1 °C 34073.3 hPa Calm   7.7 km/h 81 % 0 mm
09:30 -12.4 °C -14.1 °C 34073.3 hPa Calm   7.7 km/h 81 % 0 mm
09:45 -12.3 °C -14.1 °C 34073.3 hPa Calm   10.3 km/h 80 % 0 mm
10:00 -11.9 °C -13.8 °C 34073.3 hPa NW 5.1 km/h 15.6 km/h 79 % 0 mm
10:15 -11.8 °C -14.1 °C 34086.9 hPa NW 5.1 km/h 20.8 km/h 76 % 0 mm
10:30 -11.6 °C -13.8 °C 34086.9 hPa NW 5.1 km/h 15.6 km/h 76 % 0 mm
10:45 -11.7 °C -13.8 °C 34073.3 hPa NW 2.6 km/h 12.9 km/h 77 % 0 mm
11:00 -11.4 °C -14.1 °C 34073.3 hPa NW 5.1 km/h 23.3 km/h 73 % 0 mm
11:15 -11.8 °C -14.2 °C 34086.9 hPa NW 5.1 km/h 15.6 km/h 75 % 0 mm
11:30 -11.8 °C -14 °C 34086.9 hPa Calm   12.9 km/h 76 % 0 mm
11:45 -11.7 °C -14.2 °C 34086.9 hPa Calm   7.7 km/h 74 % 0 mm
12:00 -11.6 °C -13.9 °C 34086.9 hPa Calm   5.1 km/h 75 % 0 mm
12:15 -11.2 °C -14.2 °C 34086.9 hPa Calm   7.7 km/h 70 % 0 mm
12:30 -11 °C -13.9 °C 34086.9 hPa NNW 2.6 km/h 7.7 km/h 70 % 0 mm
12:45 -10.9 °C -14.1 °C 34086.9 hPa WNW 2.6 km/h 10.3 km/h 68 % 0 mm
13:00 -11.1 °C -13.9 °C 34086.9 hPa Calm   5.1 km/h 71 % 0 mm
13:15 -10.7 °C -13.9 °C 34086.9 hPa Calm   7.7 km/h 68 % 0 mm
13:30 -10.7 °C -13.8 °C 34073.3 hPa Calm   5.1 km/h 69 % 0 mm
13:45 -10.7 °C -13.9 °C 34073.3 hPa Calm   2.6 km/h 68 % 0 mm
14:00 -10.2 °C -13.3 °C 34073.3 hPa Calm   7.7 km/h 69 % 0 mm
14:15 -10.2 °C -13.6 °C 34073.3 hPa NW 2.6 km/h 15.6 km/h 66 % 0 mm
14:30 -10.1 °C -13.4 °C 34073.3 hPa Calm   10.3 km/h 67 % 0 mm
14:45 -10.1 °C -14.1 °C 34073.3 hPa Calm   5.1 km/h 62 % 0 mm
15:00 -10.1 °C -14.2 °C 34073.3 hPa NW 2.6 km/h 15.6 km/h 61 % 0 mm
15:15 -10.1 °C -14.6 °C 34063.2 hPa West 2.6 km/h 12.9 km/h 58 % 0 mm
15:30 -9.6 °C -14.2 °C 34063.2 hPa SW 5.1 km/h 15.6 km/h 58 % 0 mm
15:45 -9.6 °C -14.2 °C 34063.2 hPa Calm   2.6 km/h 58 % 0 mm
16:00 -9.4 °C -14.1 °C 34063.2 hPa Calm   2.6 km/h 57 % 0 mm
16:15 -9.5 °C -13.9 °C 34063.2 hPa Calm   10.3 km/h 59 % 0 mm
16:30 -9.3 °C -13.8 °C 34063.2 hPa Calm   2.6 km/h 58 % 0 mm
16:45 -9.1 °C -13.9 °C 34049.6 hPa Calm   7.7 km/h 56 % 0 mm
17:00 -9.3 °C -14.4 °C 34049.6 hPa WSW 2.6 km/h 12.9 km/h 54 % 0 mm
17:15 -9.1 °C -14.4 °C 34049.6 hPa West 2.6 km/h 10.3 km/h 53 % 0 mm
17:30 -9.1 °C -14.6 °C 34049.6 hPa NW 2.6 km/h 12.9 km/h 52 % 0 mm
17:45 -9.3 °C -14 °C 34049.6 hPa Calm   7.7 km/h 57 % 0 mm
18:00 -8.7 °C -13.8 °C 34039.5 hPa NW 2.6 km/h 7.7 km/h 55 % 0 mm
18:15 -8.9 °C -13.6 °C 34039.5 hPa Calm   5.1 km/h 57 % 0 mm
18:30 -9 °C -13.8 °C 34039.5 hPa Calm   2.6 km/h 56 % 0 mm
18:45 -9 °C -14.3 °C 34049.6 hPa Calm     53 % 0 mm
19:00 -9.1 °C -14.4 °C 34039.5 hPa Calm   2.6 km/h 53 % 0 mm
19:15 -8.9 °C -14.1 °C 34049.6 hPa Calm   2.6 km/h 54 % 0 mm
19:30 -9.3 °C -14.2 °C 34049.6 hPa SE 2.6 km/h 12.9 km/h 56 % 0 mm
19:45 -9.7 °C -13.8 °C 34039.5 hPa Calm     61 % 0 mm
20:00 -9.9 °C -13.7 °C 34039.5 hPa Calm     64 % 0 mm
20:15 -9.9 °C -13.2 °C 34039.5 hPa Calm     67 % 0 mm
20:30 -9.9 °C -13.3 °C 34039.5 hPa Calm     66 % 0 mm
20:45 -9.6 °C -13.5 °C 34029.3 hPa Calm     63 % 0 mm
21:00 -9.6 °C -13.8 °C 34029.3 hPa Calm   10.3 km/h 61 % 0 mm
21:15 -9.8 °C -13.4 °C 34029.3 hPa Calm     65 % 0 mm
21:30 -9.9 °C -13.7 °C 34029.3 hPa Calm   10.3 km/h 63 % 0 mm
21:45 -10.1 °C -13.8 °C 34029.3 hPa Calm   10.3 km/h 64 % 0 mm
22:00 -10.2 °C -13.7 °C 34029.3 hPa Calm   5.1 km/h 66 % 0 mm
22:15 -10.6 °C -13.5 °C 34029.3 hPa Calm     70 % 0 mm
22:30 -10.9 °C -13.6 °C 34039.5 hPa Calm     73 % 0 mm
22:45 -11.3 °C -13.6 °C 34039.5 hPa Calm     76 % 0 mm
23:00 -11.8 °C -13.7 °C 34029.3 hPa Calm     79 % 0 mm
23:15 -12.1 °C -13.8 °C 34029.3 hPa Calm     81 % 0 mm
23:30 -12.5 °C -14 °C 34029.3 hPa Calm     83 % 0 mm
23:45 -12.9 °C -14.2 °C 34015.8 hPa Calm     85 % 0 mm
Esan sääasema
Terveisin Weather Underground - 2.75 mb

Alkuperäinen skripti  Jim McMurry - jmcmurry@mwt.net Sovitettu myös templatelle  Wim van der Kuil - Leuven-Template.eu

Laitteet joita käytämme:

Sääasema
Davis VP2

Sääasemaohjelma
Cumulus

Sääaseman tietokone
Asus EeePC

Palveluntarjoaja
Suncomet

Davis VP2

Cumulus

Asus EeePC

Suncomet